Time;durP1;ratioP1;P1;durP2;ratioP2;P2;SDS_P1;SDS_P2;PMS_P1;PMS_P2;Temp;Humidity;BMP_temperature;BMP_pressure;BME280_temperature;BME280_humidity;BME280_pressure;Samples;Min_cycle;Max_cycle;Signal;HPM_P1;HPM_P2
2022/04/17 00:01:36;;;;;;;22.15;14.18;;;4.40;77.80;;;;;;5030224;28;20026;-71
2022/04/17 00:04:02;;;;;;;25.75;14.50;;;4.40;77.90;;;;;;5033426;28;20167;-72
2022/04/17 00:06:27;;;;;;;24.80;13.95;;;4.30;78.10;;;;;;5029707;28;20116;-71
2022/04/17 00:08:53;;;;;;;25.83;13.38;;;4.30;78.40;;;;;;5030825;28;20374;-71
2022/04/17 00:11:19;;;;;;;22.83;13.93;;;4.30;78.50;;;;;;5026063;28;20533;-71
2022/04/17 00:13:44;;;;;;;22.00;13.35;;;4.30;78.80;;;;;;5022740;28;20457;-71
2022/04/17 00:16:10;;;;;;;24.55;13.18;;;4.30;78.70;;;;;;5030632;28;20034;-71
2022/04/17 00:18:36;;;;;;;21.83;13.00;;;4.20;78.80;;;;;;5030010;28;20035;-71
2022/04/17 00:21:03;;;;;;;20.85;12.75;;;4.30;78.80;;;;;;5030453;28;20461;-71
2022/04/17 00:23:29;;;;;;;19.15;11.88;;;4.30;78.60;;;;;;5030479;28;20032;-71
2022/04/17 00:25:54;;;;;;;19.25;12.48;;;4.30;78.70;;;;;;5030445;28;20108;-71
2022/04/17 00:28:20;;;;;;;23.15;11.63;;;4.20;78.80;;;;;;5024429;28;20029;-71
2022/04/17 00:30:45;;;;;;;20.27;11.38;;;4.20;78.90;;;;;;5024014;28;20029;-71
2022/04/17 00:33:11;;;;;;;19.05;11.30;;;4.10;78.80;;;;;;5030730;28;20448;-71
2022/04/17 00:35:38;;;;;;;23.58;11.77;;;4.10;79.20;;;;;;5027764;28;20057;-72
2022/04/17 00:38:04;;;;;;;17.88;10.38;;;4.10;79.30;;;;;;5030585;28;20025;-71
2022/04/17 00:40:30;;;;;;;14.70;9.75;;;4.10;79.30;;;;;;5030380;28;20091;-71
2022/04/17 00:42:58;;;;;;;16.70;9.68;;;4.10;79.20;;;;;;5030108;28;20069;-71
2022/04/17 00:45:23;;;;;;;16.40;10.13;;;4.20;79.00;;;;;;5028713;28;20101;-71
2022/04/17 00:47:49;;;;;;;16.38;9.63;;;4.20;78.70;;;;;;5030016;28;20061;-71
2022/04/17 00:50:15;;;;;;;14.23;9.32;;;4.30;79.00;;;;;;5029379;28;20049;-71
2022/04/17 00:52:43;;;;;;;17.63;10.05;;;4.30;78.10;;;;;;5026416;28;20041;-71
2022/04/17 00:55:09;;;;;;;18.48;9.02;;;4.30;78.00;;;;;;5027911;28;20026;-71
2022/04/17 00:57:35;;;;;;;14.80;9.23;;;4.30;77.90;;;;;;5029198;28;20034;-71
2022/04/17 01:00:02;;;;;;;12.40;8.35;;;4.50;77.20;;;;;;5030217;28;20029;-71
2022/04/17 01:02:28;;;;;;;15.10;8.55;;;4.40;76.60;;;;;;5029803;28;20038;-72
2022/04/17 01:04:53;;;;;;;13.88;8.48;;;4.40;76.70;;;;;;5028212;28;20052;-71
2022/04/17 01:07:23;;;;;;;14.88;8.75;;;4.50;76.50;;;;;;5030012;28;20025;-71
2022/04/17 01:09:53;;;;;;;15.57;8.65;;;4.50;76.30;;;;;;5026646;28;20037;-71
2022/04/17 01:12:18;;;;;;;12.88;8.30;;;4.40;76.60;;;;;;5037963;28;20029;-71
2022/04/17 01:14:44;;;;;;;17.63;8.52;;;4.40;76.40;;;;;;5030187;28;20033;-71
2022/04/17 01:17:12;;;;;;;16.27;9.10;;;4.30;76.60;;;;;;5030104;28;20100;-71
2022/04/17 01:19:39;;;;;;;15.52;8.98;;;4.30;76.80;;;;;;5025696;28;20481;-71
2022/04/17 01:22:09;;;;;;;15.93;8.90;;;4.10;77.10;;;;;;5029891;28;20542;-71
2022/04/17 01:27:33;;;;;;;14.05;8.77;;;4.10;77.20;;;;;;5016051;28;21159;-71
2022/04/17 01:29:58;;;;;;;16.10;8.75;;;4.00;77.60;;;;;;5029481;28;20453;-71
2022/04/17 01:32:24;;;;;;;13.35;8.43;;;3.90;78.00;;;;;;5030263;28;20030;-72
2022/04/17 01:34:50;;;;;;;13.38;8.70;;;3.80;78.10;;;;;;5029492;28;20033;-71
2022/04/17 01:37:17;;;;;;;13.80;9.05;;;3.70;78.10;;;;;;5026468;28;20469;-71
2022/04/17 01:39:43;;;;;;;14.90;8.48;;;3.70;78.40;;;;;;5032390;28;20314;-71
2022/04/17 01:42:11;;;;;;;14.35;8.77;;;3.70;78.40;;;;;;5033535;28;20036;-71
2022/04/17 01:44:36;;;;;;;15.05;8.98;;;3.60;78.70;;;;;;5032135;28;20147;-72
2022/04/17 01:47:02;;;;;;;15.70;8.60;;;3.60;78.90;;;;;;5033715;28;20524;-71
2022/04/17 01:49:28;;;;;;;15.23;9.20;;;3.50;78.80;;;;;;5033299;28;20025;-71
2022/04/17 01:51:55;;;;;;;15.70;8.45;;;3.50;78.80;;;;;;5033304;28;20029;-71
2022/04/17 01:54:25;;;;;;;15.10;9.05;;;3.50;78.50;;;;;;5025933;28;20051;-71
2022/04/17 01:56:51;;;;;;;16.65;9.32;;;3.50;78.50;;;;;;5031893;28;20022;-71
2022/04/17 01:59:19;;;;;;;15.93;8.50;;;3.50;78.30;;;;;;5033651;28;20041;-71
2022/04/17 02:01:45;;;;;;;15.48;9.02;;;3.40;78.20;;;;;;5024041;28;20458;-71
2022/04/17 02:04:11;;;;;;;13.95;8.38;;;3.50;77.80;;;;;;5032751;28;20061;-70
2022/04/17 02:06:40;;;;;;;15.70;8.70;;;3.50;77.70;;;;;;5032991;28;20072;-72
2022/04/17 02:09:08;;;;;;;13.10;7.93;;;3.40;77.80;;;;;;5033162;28;20396;-71
2022/04/17 02:11:34;;;;;;;14.82;8.85;;;3.40;77.80;;;;;;5031982;28;20025;-71
2022/04/17 02:14:00;;;;;;;13.50;8.35;;;3.40;77.70;;;;;;5033085;28;20033;-70
2022/04/17 02:16:26;;;;;;;16.45;8.52;;;3.30;77.70;;;;;;5032774;28;20056;-70
2022/04/17 02:18:55;;;;;;;16.17;8.73;;;3.30;78.00;;;;;;5027888;28;20068;-71
2022/04/17 02:21:21;;;;;;;13.25;7.70;;;3.10;77.60;;;;;;5032504;28;20424;-71
2022/04/17 02:23:47;;;;;;;15.88;7.90;;;3.10;77.90;;;;;;5032818;28;20040;-71
2022/04/17 02:26:13;;;;;;;13.13;7.80;;;3.00;78.20;;;;;;5025017;28;20021;-72
2022/04/17 02:28:40;;;;;;;15.13;8.23;;;3.00;78.60;;;;;;5030916;28;20042;-70
2022/04/17 02:31:07;;;;;;;14.25;7.78;;;2.90;79.10;;;;;;5032776;28;20041;-71
2022/04/17 02:33:34;;;;;;;12.77;7.70;;;2.90;79.10;;;;;;5032310;28;20041;-71
2022/04/17 02:36:00;;;;;;;14.25;8.25;;;2.80;79.00;;;;;;5030188;28;20033;-70
2022/04/17 02:38:26;;;;;;;13.95;8.32;;;2.80;79.10;;;;;;5032183;28;20396;-71
2022/04/17 02:40:54;;;;;;;14.40;7.95;;;2.80;79.20;;;;;;5032220;28;20103;-71
2022/04/17 02:43:20;;;;;;;13.85;7.05;;;2.80;79.30;;;;;;5032344;28;20072;-71
2022/04/17 02:45:45;;;;;;;14.23;7.90;;;2.80;79.30;;;;;;5028025;28;20037;-71
2022/04/17 02:48:11;;;;;;;12.63;7.65;;;2.70;79.10;;;;;;5027274;28;20025;-71
2022/04/17 02:50:36;;;;;;;15.48;7.97;;;2.70;78.90;;;;;;5032472;28;20104;-72
2022/04/17 02:53:02;;;;;;;13.05;7.80;;;2.70;78.90;;;;;;5023097;28;20044;-71
2022/04/17 02:55:28;;;;;;;12.32;8.00;;;2.70;78.80;;;;;;5032887;28;20534;-70
2022/04/17 02:57:54;;;;;;;14.43;7.65;;;2.70;78.80;;;;;;5032399;28;20037;-71
2022/04/17 03:00:21;;;;;;;15.95;7.95;;;2.70;78.80;;;;;;5031226;28;20083;-71
2022/04/17 03:05:37;;;;;;;13.18;8.02;;;2.60;78.70;;;;;;5032108;28;20028;-70
2022/04/17 03:08:07;;;;;;;13.13;8.02;;;2.50;78.30;;;;;;5031433;28;20030;-71
2022/04/17 03:10:37;;;;;;;15.85;7.38;;;2.60;78.50;;;;;;5030807;28;20030;-70
2022/04/17 03:13:04;;;;;;;14.70;7.30;;;2.40;78.60;;;;;;5032829;28;20501;-71
2022/04/17 03:15:39;;;;;;;13.43;6.72;;;2.30;79.00;;;;;;5032175;28;20021;-71
2022/04/17 03:18:06;;;;;;;13.90;7.65;;;2.30;79.50;;;;;;5028976;28;20458;-70
2022/04/17 03:20:32;;;;;;;13.80;7.18;;;2.30;79.90;;;;;;5029650;28;20373;-71
2022/04/17 03:22:57;;;;;;;14.32;7.93;;;2.10;80.20;;;;;;5030294;28;20037;-70
2022/04/17 03:25:24;;;;;;;12.75;6.82;;;2.10;80.30;;;;;;5023253;28;20081;-71
2022/04/17 03:27:49;;;;;;;14.30;7.63;;;2.00;80.50;;;;;;5027752;28;20465;-71
2022/04/17 03:30:17;;;;;;;12.32;7.38;;;2.00;80.80;;;;;;5031134;28;20030;-70
2022/04/17 03:32:47;;;;;;;13.65;7.80;;;2.00;80.60;;;;;;5031741;28;20033;-71
2022/04/17 03:35:14;;;;;;;11.05;6.95;;;2.00;80.30;;;;;;5027327;28;20378;-71
2022/04/17 03:37:43;;;;;;;12.82;7.68;;;2.00;80.10;;;;;;5020545;28;20492;-71
2022/04/17 03:40:12;;;;;;;14.50;7.05;;;2.00;80.10;;;;;;5032015;28;20453;-70
2022/04/17 03:42:38;;;;;;;10.75;5.97;;;2.00;80.10;;;;;;5029426;28;20369;-71
2022/04/17 03:45:06;;;;;;;16.17;7.53;;;2.00;79.90;;;;;;5025989;28;20308;-71
2022/04/17 03:47:32;;;;;;;11.75;6.88;;;2.00;79.60;;;;;;5031533;28;20025;-72
2022/04/17 03:49:58;;;;;;;11.85;6.65;;;2.00;79.70;;;;;;5031222;28;20033;-72
2022/04/17 03:52:24;;;;;;;11.45;6.53;;;2.00;79.40;;;;;;5025366;28;20053;-71
2022/04/17 03:54:49;;;;;;;10.45;6.40;;;2.00;79.50;;;;;;5026856;28;20480;-70
2022/04/17 03:57:15;;;;;;;13.07;6.32;;;2.10;79.30;;;;;;5031618;28;20045;-70
2022/04/17 03:59:40;;;;;;;9.35;5.90;;;1.90;79.20;;;;;;5027644;28;20388;-71
2022/04/17 04:02:07;;;;;;;12.30;6.15;;;1.90;79.20;;;;;;5031333;28;20037;-70
2022/04/17 04:04:33;;;;;;;10.27;6.00;;;1.80;78.70;;;;;;5031200;28;20025;-70
2022/04/17 04:06:59;;;;;;;9.85;6.15;;;1.80;78.90;;;;;;5031269;28;20431;-70
2022/04/17 04:09:24;;;;;;;13.45;6.65;;;1.80;79.00;;;;;;5029099;28;20448;-71
2022/04/17 04:11:50;;;;;;;11.13;6.70;;;1.70;79.20;;;;;;5031484;28;20029;-70
2022/04/17 04:14:15;;;;;;;10.48;5.65;;;1.70;79.30;;;;;;5023618;28;20575;-71
2022/04/17 04:16:41;;;;;;;11.77;6.78;;;1.70;79.60;;;;;;5028255;28;20068;-71
2022/04/17 04:19:06;;;;;;;12.82;6.18;;;1.60;80.00;;;;;;5027930;28;20109;-66
2022/04/17 04:21:32;;;;;;;14.27;6.70;;;1.60;80.70;;;;;;5030912;28;20029;-67
2022/04/17 04:23:57;;;;;;;13.63;5.57;;;1.50;81.00;;;;;;5031079;28;20080;-66
2022/04/17 04:26:23;;;;;;;11.20;6.55;;;1.50;81.30;;;;;;5025008;28;20088;-67
2022/04/17 04:28:49;;;;;;;9.98;5.63;;;1.40;81.60;;;;;;5025047;28;20048;-67
2022/04/17 04:31:15;;;;;;;12.02;6.47;;;1.40;81.60;;;;;;5030486;28;20508;-66
2022/04/17 04:33:42;;;;;;;12.82;6.35;;;1.30;81.70;;;;;;5028353;28;20456;-67
2022/04/17 04:36:11;;;;;;;10.90;6.20;;;1.30;81.80;;;;;;5029538;28;20021;-67
2022/04/17 04:38:39;;;;;;;10.20;5.93;;;1.30;81.60;;;;;;5031012;28;20040;-68
2022/04/17 04:41:04;;;;;;;9.40;5.88;;;1.30;81.60;;;;;;5031133;28;20025;-67
2022/04/17 04:43:31;;;;;;;9.95;5.90;;;1.30;81.40;;;;;;5022826;28;20104;-67
2022/04/17 04:46:06;;;;;;;11.85;6.80;;;1.30;81.50;;;;;;5028395;28;20071;-66
2022/04/17 04:51:19;;;;;;;11.15;6.03;;;1.30;81.90;;;;;;5023372;28;20547;-67
2022/04/17 04:53:44;;;;;;;13.85;6.82;;;1.30;81.90;;;;;;5024257;28;20029;-67
2022/04/17 04:56:10;;;;;;;10.13;6.22;;;1.40;81.90;;;;;;5030171;28;20029;-66
2022/04/17 04:58:36;;;;;;;13.05;6.03;;;1.40;81.90;;;;;;5030328;28;20040;-67
2022/04/17 05:01:02;;;;;;;12.27;6.18;;;1.60;81.50;;;;;;5019247;28;20077;-68
2022/04/17 05:03:28;;;;;;;12.57;6.35;;;1.70;80.90;;;;;;5026623;28;20095;-66
2022/04/17 05:05:53;;;;;;;11.82;6.28;;;1.80;80.30;;;;;;5030281;28;20025;-66
2022/04/17 05:08:19;;;;;;;9.63;5.90;;;1.90;79.80;;;;;;5029104;28;20036;-65
2022/04/17 05:10:45;;;;;;;11.88;6.22;;;2.10;78.80;;;;;;5030145;28;20034;-65
2022/04/17 05:13:11;;;;;;;11.23;5.80;;;2.20;78.10;;;;;;5034638;28;20040;-66
2022/04/17 05:15:37;;;;;;;11.80;6.70;;;2.20;78.00;;;;;;5034526;28;20421;-67
2022/04/17 05:18:03;;;;;;;10.32;5.80;;;2.30;77.80;;;;;;5025550;28;20461;-67
2022/04/17 05:20:29;;;;;;;11.07;6.05;;;2.40;77.60;;;;;;5034595;28;20033;-67
2022/04/17 05:23:03;;;;;;;11.18;5.43;;;2.40;77.50;;;;;;5033858;28;20071;-67
2022/04/17 05:25:30;;;;;;;10.02;6.05;;;2.60;77.20;;;;;;5028639;28;20063;-67
2022/04/17 05:27:55;;;;;;;11.82;5.70;;;2.70;76.40;;;;;;5033949;28;20026;-67
2022/04/17 05:30:21;;;;;;;11.95;5.68;;;2.80;75.70;;;;;;5034108;28;20477;-68
2022/04/17 05:32:46;;;;;;;9.82;5.28;;;2.90;75.10;;;;;;5034182;28;20033;-68
2022/04/17 05:35:12;;;;;;;11.25;5.18;;;3.00;74.70;;;;;;5021882;28;20033;-68
2022/04/17 05:37:37;;;;;;;10.30;5.20;;;3.10;74.50;;;;;;5028184;28;20036;-68
2022/04/17 05:40:04;;;;;;;10.60;5.28;;;3.10;74.30;;;;;;5034166;28;20041;-70
2022/04/17 05:42:29;;;;;;;7.85;4.90;;;3.30;73.90;;;;;;5033301;28;20033;-68
2022/04/17 05:44:55;;;;;;;10.18;4.85;;;3.40;73.10;;;;;;5033948;28;20124;-68
2022/04/17 05:47:21;;;;;;;9.32;5.35;;;3.50;72.60;;;;;;5033666;28;20079;-68
2022/04/17 05:49:46;;;;;;;9.88;5.25;;;3.60;72.20;;;;;;5033418;28;20112;-68
2022/04/17 05:52:12;;;;;;;7.05;4.57;;;3.70;72.40;;;;;;5032049;28;20033;-68
2022/04/17 05:54:43;;;;;;;7.72;4.22;;;3.80;71.40;;;;;;5033699;28;20037;-67
2022/04/17 05:57:09;;;;;;;6.55;4.15;;;4.00;71.30;;;;;;5033673;28;20030;-67
2022/04/17 05:59:36;;;;;;;11.07;4.55;;;4.20;70.50;;;;;;5028295;28;20611;-68
2022/04/17 06:02:02;;;;;;;9.25;4.60;;;4.30;70.10;;;;;;5026416;28;20025;-69
2022/04/17 06:04:28;;;;;;;7.30;4.47;;;4.40;69.70;;;;;;5033771;28;20040;-68
2022/04/17 06:06:54;;;;;;;7.53;4.15;;;4.50;69.70;;;;;;5032901;28;20029;-68
2022/04/17 06:09:19;;;;;;;8.00;4.70;;;4.70;69.40;;;;;;5025246;28;20037;-68
2022/04/17 06:11:45;;;;;;;6.07;3.78;;;4.80;68.30;;;;;;5032550;28;20473;-68
2022/04/17 06:14:10;;;;;;;8.15;4.20;;;5.00;66.70;;;;;;5029239;28;20044;-68
2022/04/17 06:16:36;;;;;;;5.43;3.50;;;5.20;65.50;;;;;;5028745;28;20034;-68
2022/04/17 06:19:02;;;;;;;9.25;3.38;;;5.30;65.10;;;;;;5032113;28;20044;-68
2022/04/17 06:21:28;;;;;;;6.50;3.22;;;5.50;63.70;;;;;;5032647;28;20026;-68
2022/04/17 06:23:54;;;;;;;4.95;3.00;;;5.60;63.50;;;;;;5032778;28;20081;-68
2022/04/17 06:26:19;;;;;;;6.30;3.40;;;5.70;62.20;;;;;;5024996;28;20088;-68
2022/04/17 06:28:45;;;;;;;6.65;3.28;;;5.80;62.30;;;;;;5031802;28;20034;-68
2022/04/17 06:31:10;;;;;;;7.85;3.33;;;5.90;61.00;;;;;;5032849;28;20545;-68
2022/04/17 06:33:36;;;;;;;6.47;3.00;;;6.10;61.20;;;;;;5026642;28;20033;-68
2022/04/17 06:36:01;;;;;;;5.65;3.33;;;6.20;60.70;;;;;;5032430;28;20052;-68
2022/04/17 06:38:28;;;;;;;4.65;2.80;;;6.30;59.90;;;;;;5032990;28;20049;-68
2022/04/17 06:40:54;;;;;;;4.82;2.78;;;6.30;59.00;;;;;;5033397;28;20072;-68
2022/04/17 06:43:19;;;;;;;5.00;2.90;;;6.50;59.30;;;;;;5022431;28;20524;-68
2022/04/17 06:45:45;;;;;;;5.57;3.42;;;6.60;58.40;;;;;;5032851;28;20025;-68
2022/04/17 06:48:21;;;;;;;4.50;2.47;;;6.60;60.20;;;;;;5025938;28;20461;-68
2022/04/17 06:50:48;;;;;;;6.03;3.10;;;7.10;60.50;;;;;;5031593;28;20033;-69
2022/04/17 06:53:14;;;;;;;6.70;3.25;;;7.10;57.80;;;;;;5031848;28;20472;-68
2022/04/17 06:55:40;;;;;;;5.45;2.83;;;7.30;58.20;;;;;;5032557;28;20030;-69
2022/04/17 06:58:07;;;;;;;6.53;2.78;;;7.50;56.90;;;;;;5032491;28;20067;-68
2022/04/17 07:00:33;;;;;;;4.85;2.75;;;7.40;55.90;;;;;;5022061;28;20022;-69
2022/04/17 07:02:58;;;;;;;8.57;3.00;;;7.50;55.50;;;;;;5025183;28;20022;-68
2022/04/17 07:05:24;;;;;;;6.85;3.28;;;7.40;56.00;;;;;;5031864;28;20041;-68
2022/04/17 07:08:04;;;;;;;5.60;2.88;;;7.90;55.70;;;;;;5020515;28;20488;-68
2022/04/17 07:10:31;;;;;;;6.00;2.80;;;8.10;52.30;;;;;;5021359;28;20120;-68
2022/04/17 07:12:57;;;;;;;6.45;2.55;;;8.30;53.50;;;;;;5032280;28;20060;-68
2022/04/17 07:15:26;;;;;;;5.25;2.63;;;8.60;52.40;;;;;;5032242;28;20073;-68
2022/04/17 07:17:53;;;;;;;4.88;2.25;;;8.50;51.40;;;;;;5028275;28;20495;-70
2022/04/17 07:20:19;;;;;;;4.88;1.85;;;8.50;50.80;;;;;;5032228;28;20029;-68
2022/04/17 07:22:47;;;;;;;3.88;1.95;;;8.50;51.00;;;;;;5030296;28;20033;-68
2022/04/17 07:25:13;;;;;;;4.57;1.88;;;8.60;49.70;;;;;;5021783;28;20030;-68
2022/04/17 07:27:41;;;;;;;5.47;1.88;;;8.70;49.80;;;;;;5032145;28;20037;-68
2022/04/17 07:30:11;;;;;;;2.55;1.40;;;9.10;50.30;;;;;;5031539;28;20653;-68
2022/04/17 07:32:38;;;;;;;4.22;2.17;;;9.10;47.90;;;;;;5031693;28;20037;-71
2022/04/17 07:35:04;;;;;;;3.83;1.63;;;9.10;49.20;;;;;;5030064;28;20030;-68
2022/04/17 07:37:32;;;;;;;2.63;1.50;;;9.20;46.90;;;;;;5030923;28;20032;-68
2022/04/17 07:39:57;;;;;;;3.75;1.77;;;9.10;47.50;;;;;;5031676;28;20065;-69
2022/04/17 07:42:23;;;;;;;3.53;1.58;;;9.30;47.10;;;;;;5027032;28;20483;-69
2022/04/17 07:44:48;;;;;;;4.22;2.00;;;9.80;47.00;;;;;;5031287;28;20581;-69
2022/04/17 07:47:15;;;;;;;3.10;1.38;;;9.70;47.40;;;;;;5032060;28;20032;-69
2022/04/17 07:49:40;;;;;;;1.77;1.20;;;10.00;44.00;;;;;;5031106;28;20048;-70
2022/04/17 07:52:07;;;;;;;3.20;1.30;;;10.20;43.00;;;;;;5023199;28;20034;-69
2022/04/17 07:54:32;;;;;;;3.25;1.45;;;10.30;42.10;;;;;;5031519;28;20061;-67
2022/04/17 07:56:58;;;;;;;2.50;1.30;;;10.50;40.10;;;;;;5031119;28;20057;-68
2022/04/17 07:59:25;;;;;;;2.42;1.20;;;10.20;39.40;;;;;;5024791;28;20029;-69
2022/04/17 08:01:50;;;;;;;2.15;1.15;;;10.60;40.30;;;;;;5031325;28;20025;-69
2022/04/17 08:04:16;;;;;;;2.08;1.33;;;10.80;38.50;;;;;;5031045;28;20125;-70
2022/04/17 08:06:42;;;;;;;2.63;1.35;;;10.70;38.30;;;;;;5030430;28;20416;-71
2022/04/17 08:09:07;;;;;;;2.10;1.08;;;10.90;39.80;;;;;;5022148;28;20100;-69
2022/04/17 08:11:34;;;;;;;4.15;1.45;;;11.10;38.90;;;;;;5031358;28;20129;-67
2022/04/17 08:13:59;;;;;;;4.60;1.38;;;11.10;37.60;;;;;;5029715;28;20013;-69
2022/04/17 08:16:24;;;;;;;3.20;1.73;;;11.20;40.20;;;;;;5029945;28;20024;-68
2022/04/17 08:18:50;;;;;;;5.15;1.35;;;11.50;38.70;;;;;;5031587;28;20026;-68
2022/04/17 08:21:16;;;;;;;4.43;1.20;;;11.70;39.20;;;;;;5029504;28;20125;-67
2022/04/17 08:23:41;;;;;;;3.20;1.60;;;11.10;37.70;;;;;;5031027;28;20029;-70
2022/04/17 08:26:08;;;;;;;3.53;1.40;;;11.50;38.40;;;;;;5022072;28;20111;-68
2022/04/17 08:28:33;;;;;;;3.05;1.40;;;11.80;39.80;;;;;;5030686;28;20030;-68
2022/04/17 08:30:59;;;;;;;1.88;1.02;;;11.90;38.90;;;;;;5031012;28;20438;-67
2022/04/17 08:33:26;;;;;;;4.60;1.50;;;12.00;36.90;;;;;;5030640;28;20024;-68
2022/04/17 08:35:53;;;;;;;2.88;1.27;;;12.50;38.30;;;;;;5030781;28;20079;-68
2022/04/17 08:38:19;;;;;;;2.05;1.17;;;12.00;39.50;;;;;;5030776;28;20300;-67
2022/04/17 08:40:45;;;;;;;2.63;1.42;;;12.40;37.30;;;;;;5030168;28;20029;-68
2022/04/17 08:43:11;;;;;;;3.45;1.40;;;12.80;36.60;;;;;;5027349;28;20370;-67
2022/04/17 08:45:37;;;;;;;2.15;1.30;;;12.80;38.80;;;;;;5030933;28;20138;-67
2022/04/17 08:48:03;;;;;;;2.80;1.10;;;13.30;36.70;;;;;;5023924;28;20045;-68
2022/04/17 08:50:30;;;;;;;2.72;1.20;;;13.00;35.60;;;;;;5023022;28;20045;-67
2022/04/17 08:52:59;;;;;;;3.08;1.13;;;13.40;35.90;;;;;;5030555;28;20049;-68
2022/04/17 08:55:24;;;;;;;2.05;1.00;;;13.30;34.90;;;;;;5033117;28;20029;-68
2022/04/17 08:57:50;;;;;;;2.20;1.05;;;13.60;36.40;;;;;;5026317;28;20044;-68
2022/04/17 09:00:17;;;;;;;1.20;1.00;;;13.40;31.40;;;;;;5026133;28;20049;-71
2022/04/17 09:02:44;;;;;;;2.17;1.10;;;13.80;32.10;;;;;;5026611;28;20100;-71
2022/04/17 09:05:12;;;;;;;3.10;0.80;;;13.40;33.30;;;;;;5030747;28;20112;-68
2022/04/17 09:07:49;;;;;;;1.20;0.85;;;13.10;30.80;;;;;;5025770;28;20037;-68
2022/04/17 09:10:28;;;;;;;2.15;1.00;;;13.60;31.90;;;;;;5030286;28;20088;-68
2022/04/17 09:12:59;;;;;;;1.50;0.88;;;12.90;32.00;;;;;;5030593;28;20029;-68
2022/04/17 09:15:25;;;;;;;;;;;13.80;30.90;;;;;;5024870;28;20032;-68
2022/04/17 09:17:51;;;;;;;1.75;0.70;;;14.00;30.40;;;;;;5029315;28;19911;-68
2022/04/17 09:20:22;;;;;;;0.98;0.75;;;14.00;30.50;;;;;;5030395;28;20029;-68
2022/04/17 09:22:50;;;;;;;3.67;0.85;;;13.90;30.70;;;;;;5026807;28;20358;-67
2022/04/17 09:25:15;;;;;;;4.03;0.80;;;14.10;30.30;;;;;;5030615;28;20061;-68
2022/04/17 09:28:03;;;;;;;2.38;0.82;;;14.50;30.00;;;;;;5029420;28;20053;-68
2022/04/17 09:30:39;;;;;;;4.78;1.27;;;13.90;30.20;;;;;;5029121;28;20361;-67
2022/04/17 09:33:09;;;;;;;1.20;0.80;;;13.60;30.60;;;;;;5025747;28;20384;-68
2022/04/17 09:35:35;;;;;;;2.58;1.13;;;14.10;28.00;;;;;;5030111;28;20381;-67
2022/04/17 09:38:05;;;;;;;3.58;0.90;;;14.20;31.30;;;;;;5028794;28;20037;-68
2022/04/17 09:40:31;;;;;;;0.82;0.60;;;14.30;28.50;;;;;;5029792;28;20392;-67
2022/04/17 09:43:14;;;;;;;1.77;0.80;;;14.20;29.10;;;;;;5030257;28;20473;-67
2022/04/17 09:46:04;;;;;;;1.30;0.57;;;14.50;29.10;;;;;;5029687;28;20022;-67
2022/04/17 09:48:39;;;;;;;1.20;0.80;;;14.50;28.90;;;;;;5030386;28;20476;-67
2022/04/17 09:51:27;;;;;;;3.08;1.13;;;14.40;28.70;;;;;;5030134;28;20381;-67
2022/04/17 09:54:05;;;;;;;2.65;1.00;;;14.60;29.60;;;;;;5029675;28;20025;-68
2022/04/17 09:56:37;;;;;;;0.77;0.50;;;15.00;28.80;;;;;;5027948;28;20092;-67
2022/04/17 09:59:19;;;;;;;1.85;0.90;;;15.10;28.10;;;;;;5022832;28;20037;-68
2022/04/17 10:01:47;;;;;;;1.88;0.60;;;15.40;27.20;;;;;;5033407;28;20431;-69
2022/04/17 10:04:16;;;;;;;2.55;0.93;;;15.60;27.00;;;;;;5033155;28;20507;-68
2022/04/17 10:06:42;;;;;;;2.45;0.80;;;15.60;27.80;;;;;;5024489;28;20437;-69
2022/04/17 10:09:09;;;;;;;1.58;0.70;;;15.40;30.50;;;;;;5032432;28;20112;-68
2022/04/17 10:11:37;;;;;;;3.08;0.70;;;15.10;29.10;;;;;;5033644;28;20026;-68
2022/04/17 10:14:04;;;;;;;1.63;0.80;;;15.00;26.80;;;;;;5026268;28;20049;-68
2022/04/17 10:16:31;;;;;;;1.77;0.80;;;15.30;28.10;;;;;;5027043;28;20087;-67
2022/04/17 10:19:02;;;;;;;1.33;0.80;;;14.80;26.60;;;;;;5032986;28;20045;-68
2022/04/17 10:21:29;;;;;;;2.13;0.80;;;15.10;28.40;;;;;;5033267;28;20037;-68
2022/04/17 10:24:01;;;;;;;0.80;0.60;;;15.50;28.10;;;;;;5022998;28;20485;-68
2022/04/17 10:26:28;;;;;;;2.47;0.70;;;15.50;28.50;;;;;;5032683;28;20087;-67
2022/04/17 10:28:57;;;;;;;2.05;0.90;;;15.10;27.30;;;;;;5033137;28;20038;-68
2022/04/17 10:31:22;;;;;;;3.42;0.70;;;15.70;28.30;;;;;;5026190;28;20053;-69
2022/04/17 10:34:16;;;;;;;1.85;0.65;;;16.00;28.90;;;;;;5033177;28;20061;-68
2022/04/17 10:37:10;;;;;;;3.40;0.68;;;16.00;27.60;;;;;;5027295;28;20036;-69
2022/04/17 10:39:45;;;;;;;2.72;0.90;;;16.20;29.40;;;;;;5031882;28;20041;-70
2022/04/17 10:42:11;;;;;;;2.30;0.85;;;16.20;26.20;;;;;;5027455;28;20457;-68
2022/04/17 10:44:41;;;;;;;1.45;0.75;;;16.10;27.00;;;;;;5033113;28;20132;-68
2022/04/17 10:47:15;;;;;;;1.60;1.00;;;16.90;28.90;;;;;;5032313;28;20049;-68
2022/04/17 10:50:00;;;;;;;2.15;0.57;;;16.80;28.00;;;;;;5021898;28;20033;-68
2022/04/17 10:52:31;;;;;;;1.75;0.80;;;16.80;26.00;;;;;;5030922;28;20037;-68
2022/04/17 10:55:10;;;;;;;;;;;16.60;25.40;;;;;;5033314;28;20507;-68
2022/04/17 10:57:43;;;;;;;3.15;0.90;;;16.30;26.80;;;;;;5028301;28;19941;-69
2022/04/17 11:00:32;;;;;;;1.95;0.80;;;16.30;25.80;;;;;;5028247;28;20480;-68
2022/04/17 11:03:01;;;;;;;1.10;0.65;;;16.90;27.30;;;;;;5032061;28;20504;-68
2022/04/17 11:08:21;;;;;;;3.60;1.45;;;16.80;27.10;;;;;;5031507;28;20052;-68
2022/04/17 11:10:53;;;;;;;0.93;0.73;;;17.20;26.70;;;;;;5032247;28;20040;-68
2022/04/17 11:13:18;;;;;;;6.82;4.53;;;17.30;26.40;;;;;;5032003;28;20148;-69
2022/04/17 11:15:52;;;;;;;6.28;4.03;;;17.30;26.70;;;;;;5028845;28;20120;-70
2022/04/17 11:18:23;;;;;;;1.52;1.00;;;16.80;27.50;;;;;;5032505;28;20484;-68
2022/04/17 11:20:53;;;;;;;;;;;16.60;24.90;;;;;;5030815;28;20057;-68
2022/04/17 11:23:57;;;;;;;0.93;0.60;;;17.30;24.80;;;;;;5031404;28;19948;-68
2022/04/17 11:26:54;;;;;;;1.77;0.70;;;17.80;26.20;;;;;;5032392;28;20025;-69
2022/04/17 11:29:43;;;;;;;3.03;1.52;;;17.60;24.90;;;;;;5027572;28;20060;-68
2022/04/17 11:32:17;;;;;;;2.65;1.70;;;18.00;27.60;;;;;;5020114;28;20026;-68
2022/04/17 11:34:44;;;;;;;2.55;0.98;;;18.50;25.00;;;;;;5015905;28;20025;-68
2022/04/17 11:37:10;;;;;;;2.33;1.17;;;18.60;26.30;;;;;;5031655;28;20143;-68
2022/04/17 11:39:36;;;;;;;0.80;0.50;;;18.30;24.80;;;;;;5030884;28;20172;-69
2022/04/17 11:42:05;;;;;;;0.77;0.43;;;18.20;22.80;;;;;;5032003;28;20393;-69
2022/04/17 11:44:32;;;;;;;1.05;0.40;;;18.30;21.80;;;;;;5031239;28;20053;-68
2022/04/17 11:46:57;;;;;;;0.93;0.60;;;18.80;23.50;;;;;;5031925;28;20465;-69
2022/04/17 11:49:24;;;;;;;2.25;0.60;;;18.50;23.40;;;;;;5021129;28;20033;-68
2022/04/17 11:51:49;;;;;;;0.82;0.55;;;18.60;24.10;;;;;;5031528;28;20050;-68
2022/04/17 11:54:33;;;;;;;2.97;1.70;;;18.70;22.80;;;;;;5031623;28;20520;-68
2022/04/17 11:57:00;;;;;;;2.13;0.55;;;18.20;21.90;;;;;;5030611;28;20037;-68
2022/04/17 11:59:26;;;;;;;1.83;0.68;;;18.60;23.40;;;;;;5031334;28;20095;-68
2022/04/17 12:02:08;;;;;;;3.83;1.35;;;18.90;22.80;;;;;;5031517;28;20116;-68
2022/04/17 12:04:33;;;;;;;1.83;0.90;;;19.00;23.50;;;;;;5022276;28;20040;-69
2022/04/17 12:06:59;;;;;;;2.28;1.17;;;19.10;22.70;;;;;;5027863;28;20416;-68
2022/04/17 12:09:24;;;;;;;6.82;3.45;;;18.90;23.00;;;;;;5030924;28;20037;-68
2022/04/17 12:11:50;;;;;;;2.25;1.40;;;18.60;23.00;;;;;;5031619;28;20025;-68
2022/04/17 12:14:29;;;;;;;6.45;3.17;;;19.20;22.40;;;;;;5025770;28;20375;-68
2022/04/17 12:16:55;;;;;;;7.72;2.97;;;19.10;23.10;;;;;;5031054;28;20021;-68
2022/04/17 12:19:20;;;;;;;5.72;3.28;;;19.50;23.60;;;;;;5030701;28;20086;-69
2022/04/17 12:21:47;;;;;;;1.58;0.70;;;19.40;22.80;;;;;;5028938;28;20416;-68
2022/04/17 12:24:13;;;;;;;4.80;2.00;;;19.80;23.70;;;;;;5021456;28;20045;-68
2022/04/17 12:26:39;;;;;;;10.48;5.70;;;19.80;21.60;;;;;;5031153;28;20292;-69
2022/04/17 12:29:06;;;;;;;5.60;2.10;;;19.00;24.10;;;;;;5030910;28;20045;-69
2022/04/17 12:31:32;;;;;;;1.95;0.77;;;19.10;22.20;;;;;;5025357;28;20711;-70
2022/04/17 12:34:16;;;;;;;3.30;0.70;;;19.30;22.50;;;;;;5028084;28;20104;-68
2022/04/17 12:36:44;;;;;;;1.05;0.70;;;19.70;23.50;;;;;;5030775;28;20037;-68
2022/04/17 12:39:10;;;;;;;0.95;0.50;;;19.80;21.90;;;;;;5026880;28;20034;-68
2022/04/17 12:41:46;;;;;;;3.10;1.38;;;19.40;22.60;;;;;;5027085;28;20037;-68
2022/04/17 12:44:12;;;;;;;1.85;0.50;;;20.40;22.80;;;;;;5030670;28;20056;-69
2022/04/17 12:46:42;;;;;;;2.80;1.00;;;20.00;22.20;;;;;;5028491;28;20040;-71
2022/04/17 12:49:17;;;;;;;1.83;0.60;;;20.10;21.40;;;;;;5028005;28;20858;-68
2022/04/17 12:51:57;;;;;;;2.05;0.80;;;19.90;22.20;;;;;;5030258;28;20038;-68
2022/04/17 12:54:23;;;;;;;1.33;0.65;;;20.50;23.10;;;;;;5030739;28;20484;-68
2022/04/17 12:56:48;;;;;;;0.88;0.70;;;20.40;22.40;;;;;;5029824;28;20104;-68
2022/04/17 12:59:20;;;;;;;0.65;0.43;;;20.50;20.70;;;;;;5028821;28;20116;-69
2022/04/17 13:01:47;;;;;;;1.52;0.65;;;21.50;20.80;;;;;;5030220;28;20123;-69
2022/04/17 13:04:20;;;;;;;2.75;0.70;;;21.30;23.30;;;;;;5025605;28;20041;-69